ルア の空港の天気 - METARとTAF

マルタ国際空港 ( LMML / MLA ) - マルタ ルア
飛行場実況気象(Metar)
観測時間02/21 02:15 CET (02/21 01:15 UTC)
風向・風速北 1m/s
視程10km以上
天気現象
少しの雲 雲底高度 1280m
気温9℃
湿度93%
気圧1025hPa
METARLMML 210115Z 36001KT 9999 FEW042 09/08 Q1025 NOSIG
過去の天気等 Google飛行場航空写真 Wunderground天気予報

過去48時間のMETAR

飛行場予報(TAF)
発表時間: 2/21 00:00 CET (2/20 23:00 UTC)
予報対象時間: 21日1時 CET ~ 22日1時 CET
風向・風速北北東 3m/s
視程10km以上
全天の4割程度の雲 雲底高度 760m
TAF LMML 202300Z 2100/2124 03005KT 9999 SCT025